sensor_id;sensor_type;location;lat;lon;timestamp;P1;durP1;ratioP1;P2;durP2;ratioP2
26038;SDS011;13815;52.374;4.882;2022-07-06T01:58:32;25.30;;;22.50;;
26038;SDS011;13815;52.374;4.882;2022-07-06T02:00:58;25.50;;;22.80;;
26038;SDS011;13815;52.374;4.882;2022-07-06T02:03:24;25.10;;;22.50;;
26038;SDS011;13815;52.374;4.882;2022-07-06T02:05:49;24.10;;;21.60;;
26038;SDS011;13815;52.374;4.882;2022-07-06T02:08:15;25.17;;;22.35;;
26038;SDS011;13815;52.374;4.882;2022-07-06T02:10:40;24.38;;;21.88;;
26038;SDS011;13815;52.374;4.882;2022-07-06T02:13:15;24.48;;;21.95;;
26038;SDS011;13815;52.374;4.882;2022-07-06T02:15:40;23.70;;;21.40;;
26038;SDS011;13815;52.374;4.882;2022-07-06T02:18:05;24.35;;;21.95;;
26038;SDS011;13815;52.374;4.882;2022-07-06T02:20:31;23.52;;;21.05;;
26038;SDS011;13815;52.374;4.882;2022-07-06T02:22:56;23.13;;;20.83;;
26038;SDS011;13815;52.374;4.882;2022-07-06T02:25:22;23.58;;;21.25;;
26038;SDS011;13815;52.374;4.882;2022-07-06T02:27:47;24.02;;;21.58;;
26038;SDS011;13815;52.374;4.882;2022-07-06T02:30:12;24.02;;;21.67;;
26038;SDS011;13815;52.374;4.882;2022-07-06T02:32:38;23.52;;;21.33;;
26038;SDS011;13815;52.374;4.882;2022-07-06T02:35:06;23.85;;;21.45;;
26038;SDS011;13815;52.374;4.882;2022-07-06T02:37:31;24.10;;;21.73;;
26038;SDS011;13815;52.374;4.882;2022-07-06T02:39:57;23.42;;;21.23;;
26038;SDS011;13815;52.374;4.882;2022-07-06T02:42:22;23.35;;;21.15;;
26038;SDS011;13815;52.374;4.882;2022-07-06T02:44:47;23.30;;;21.02;;
26038;SDS011;13815;52.374;4.882;2022-07-06T02:47:13;23.40;;;21.10;;
26038;SDS011;13815;52.374;4.882;2022-07-06T02:49:38;22.50;;;20.40;;
26038;SDS011;13815;52.374;4.882;2022-07-06T02:52:04;22.25;;;20.15;;
26038;SDS011;13815;52.374;4.882;2022-07-06T02:54:29;22.00;;;20.00;;
26038;SDS011;13815;52.374;4.882;2022-07-06T02:56:55;22.30;;;20.20;;
26038;SDS011;13815;52.374;4.882;2022-07-06T02:59:20;21.75;;;19.85;;
26038;SDS011;13815;52.374;4.882;2022-07-06T03:01:45;22.60;;;20.40;;
26038;SDS011;13815;52.374;4.882;2022-07-06T03:04:13;22.45;;;20.35;;
26038;SDS011;13815;52.374;4.882;2022-07-06T03:06:39;23.00;;;20.80;;
26038;SDS011;13815;52.374;4.882;2022-07-06T03:09:10;23.58;;;21.25;;
26038;SDS011;13815;52.374;4.882;2022-07-06T03:11:36;23.35;;;21.08;;
26038;SDS011;13815;52.374;4.882;2022-07-06T03:14:18;24.08;;;21.58;;
26038;SDS011;13815;52.374;4.882;2022-07-06T03:16:44;22.73;;;20.52;;
26038;SDS011;13815;52.374;4.882;2022-07-06T03:19:12;22.85;;;20.65;;
26038;SDS011;13815;52.374;4.882;2022-07-06T03:21:37;24.02;;;21.63;;
26038;SDS011;13815;52.374;4.882;2022-07-06T03:24:08;24.50;;;22.00;;
26038;SDS011;13815;52.374;4.882;2022-07-06T03:26:33;25.50;;;22.80;;
26038;SDS011;13815;52.374;4.882;2022-07-06T03:28:58;24.30;;;21.80;;
26038;SDS011;13815;52.374;4.882;2022-07-06T03:31:24;23.60;;;21.30;;
26038;SDS011;13815;52.374;4.882;2022-07-06T03:33:49;23.70;;;21.30;;
26038;SDS011;13815;52.374;4.882;2022-07-06T03:36:15;23.90;;;21.50;;
26038;SDS011;13815;52.374;4.882;2022-07-06T03:38:41;23.75;;;21.35;;
26038;SDS011;13815;52.374;4.882;2022-07-06T03:41:09;22.83;;;20.63;;
26038;SDS011;13815;52.374;4.882;2022-07-06T03:43:34;23.05;;;20.85;;
26038;SDS011;13815;52.374;4.882;2022-07-06T03:46:03;23.13;;;20.83;;
26038;SDS011;13815;52.374;4.882;2022-07-06T03:48:28;23.60;;;21.30;;
26038;SDS011;13815;52.374;4.882;2022-07-06T03:50:54;23.40;;;21.10;;
26038;SDS011;13815;52.374;4.882;2022-07-06T03:53:19;22.20;;;20.10;;
26038;SDS011;13815;52.374;4.882;2022-07-06T03:55:45;22.45;;;20.25;;
26038;SDS011;13815;52.374;4.882;2022-07-06T03:58:31;22.15;;;20.05;;
26038;SDS011;13815;52.374;4.882;2022-07-06T04:00:56;23.10;;;20.80;;
26038;SDS011;13815;52.374;4.882;2022-07-06T04:03:22;21.60;;;19.60;;
26038;SDS011;13815;52.374;4.882;2022-07-06T04:05:47;22.65;;;20.38;;
26038;SDS011;13815;52.374;4.882;2022-07-06T04:08:12;22.48;;;20.27;;
26038;SDS011;13815;52.374;4.882;2022-07-06T04:10:38;22.40;;;20.20;;
26038;SDS011;13815;52.374;4.882;2022-07-06T04:13:03;22.70;;;20.50;;
26038;SDS011;13815;52.374;4.882;2022-07-06T04:15:29;21.15;;;19.25;;
26038;SDS011;13815;52.374;4.882;2022-07-06T04:17:54;21.70;;;19.70;;
26038;SDS011;13815;52.374;4.882;2022-07-06T04:20:21;22.55;;;20.35;;
26038;SDS011;13815;52.374;4.882;2022-07-06T04:22:53;22.75;;;20.45;;
26038;SDS011;13815;52.374;4.882;2022-07-06T04:25:27;21.75;;;19.65;;
26038;SDS011;13815;52.374;4.882;2022-07-06T04:27:58;22.65;;;20.35;;
26038;SDS011;13815;52.374;4.882;2022-07-06T04:30:23;21.60;;;19.50;;
26038;SDS011;13815;52.374;4.882;2022-07-06T04:32:48;22.80;;;20.40;;
26038;SDS011;13815;52.374;4.882;2022-07-06T04:35:14;22.50;;;20.20;;
26038;SDS011;13815;52.374;4.882;2022-07-06T04:37:39;22.45;;;20.08;;
26038;SDS011;13815;52.374;4.882;2022-07-06T04:40:07;22.30;;;20.00;;
26038;SDS011;13815;52.374;4.882;2022-07-06T04:42:33;22.52;;;20.33;;
26038;SDS011;13815;52.374;4.882;2022-07-06T04:44:59;22.45;;;20.17;;
26038;SDS011;13815;52.374;4.882;2022-07-06T04:47:24;23.05;;;20.65;;
26038;SDS011;13815;52.374;4.882;2022-07-06T04:49:50;22.40;;;20.10;;
26038;SDS011;13815;52.374;4.882;2022-07-06T04:52:15;22.05;;;19.85;;
26038;SDS011;13815;52.374;4.882;2022-07-06T04:54:41;22.63;;;20.33;;
26038;SDS011;13815;52.374;4.882;2022-07-06T04:57:06;22.35;;;20.05;;
26038;SDS011;13815;52.374;4.882;2022-07-06T04:59:32;22.58;;;20.27;;
26038;SDS011;13815;52.374;4.882;2022-07-06T05:01:57;21.88;;;19.63;;
26038;SDS011;13815;52.374;4.882;2022-07-06T05:04:24;22.92;;;20.52;;
26038;SDS011;13815;52.374;4.882;2022-07-06T05:06:49;24.35;;;21.75;;
26038;SDS011;13815;52.374;4.882;2022-07-06T05:09:20;24.10;;;21.50;;
26038;SDS011;13815;52.374;4.882;2022-07-06T05:11:45;23.77;;;21.17;;
26038;SDS011;13815;52.374;4.882;2022-07-06T05:14:11;25.35;;;21.77;;
26038;SDS011;13815;52.374;4.882;2022-07-06T05:16:36;24.10;;;21.50;;
26038;SDS011;13815;52.374;4.882;2022-07-06T05:19:02;25.73;;;21.95;;
26038;SDS011;13815;52.374;4.882;2022-07-06T05:21:27;25.40;;;21.75;;
26038;SDS011;13815;52.374;4.882;2022-07-06T05:23:53;25.70;;;22.05;;
26038;SDS011;13815;52.374;4.882;2022-07-06T05:26:18;24.20;;;20.90;;
26038;SDS011;13815;52.374;4.882;2022-07-06T05:28:44;24.00;;;21.30;;
26038;SDS011;13815;52.374;4.882;2022-07-06T05:31:09;24.35;;;21.55;;
26038;SDS011;13815;52.374;4.882;2022-07-06T05:33:34;25.35;;;21.67;;
26038;SDS011;13815;52.374;4.882;2022-07-06T05:36:00;25.50;;;21.42;;
26038;SDS011;13815;52.374;4.882;2022-07-06T05:38:25;25.33;;;21.40;;
26038;SDS011;13815;52.374;4.882;2022-07-06T05:40:51;27.45;;;21.90;;
26038;SDS011;13815;52.374;4.882;2022-07-06T05:43:16;25.05;;;21.40;;
26038;SDS011;13815;52.374;4.882;2022-07-06T05:45:48;25.70;;;21.55;;
26038;SDS011;13815;52.374;4.882;2022-07-06T05:48:16;27.40;;;22.20;;
26038;SDS011;13815;52.374;4.882;2022-07-06T05:51:00;25.80;;;21.70;;
26038;SDS011;13815;52.374;4.882;2022-07-06T05:53:25;26.35;;;22.00;;
26038;SDS011;13815;52.374;4.882;2022-07-06T05:55:50;27.33;;;23.65;;
26038;SDS011;13815;52.374;4.882;2022-07-06T05:58:16;25.92;;;21.48;;
26038;SDS011;13815;52.374;4.882;2022-07-06T06:00:42;24.92;;;20.38;;
26038;SDS011;13815;52.374;4.882;2022-07-06T06:03:07;24.75;;;20.70;;
26038;SDS011;13815;52.374;4.882;2022-07-06T06:05:33;26.02;;;21.35;;
26038;SDS011;13815;52.374;4.882;2022-07-06T06:07:58;25.88;;;21.40;;
26038;SDS011;13815;52.374;4.882;2022-07-06T06:10:24;25.38;;;21.20;;
26038;SDS011;13815;52.374;4.882;2022-07-06T06:12:50;25.45;;;21.27;;
26038;SDS011;13815;52.374;4.882;2022-07-06T06:15:16;27.85;;;23.52;;
26038;SDS011;13815;52.374;4.882;2022-07-06T06:17:41;27.50;;;22.85;;
26038;SDS011;13815;52.374;4.882;2022-07-06T06:20:08;26.77;;;22.40;;
26038;SDS011;13815;52.374;4.882;2022-07-06T06:22:50;27.88;;;23.65;;
26038;SDS011;13815;52.374;4.882;2022-07-06T06:25:21;27.15;;;22.27;;
26038;SDS011;13815;52.374;4.882;2022-07-06T06:27:52;29.33;;;24.08;;
26038;SDS011;13815;52.374;4.882;2022-07-06T06:30:18;28.95;;;23.50;;
26038;SDS011;13815;52.374;4.882;2022-07-06T06:32:43;28.77;;;24.13;;
26038;SDS011;13815;52.374;4.882;2022-07-06T06:35:11;28.38;;;23.42;;
26038;SDS011;13815;52.374;4.882;2022-07-06T06:37:37;30.55;;;25.30;;
26038;SDS011;13815;52.374;4.882;2022-07-06T06:40:04;30.38;;;25.10;;
26038;SDS011;13815;52.374;4.882;2022-07-06T06:42:30;30.52;;;25.90;;
26038;SDS011;13815;52.374;4.882;2022-07-06T06:44:55;31.23;;;25.45;;
26038;SDS011;13815;52.374;4.882;2022-07-06T06:47:21;31.35;;;25.88;;
26038;SDS011;13815;52.374;4.882;2022-07-06T06:49:47;30.58;;;24.35;;
26038;SDS011;13815;52.374;4.882;2022-07-06T06:52:13;30.42;;;24.27;;
26038;SDS011;13815;52.374;4.882;2022-07-06T06:54:38;30.10;;;23.95;;
26038;SDS011;13815;52.374;4.882;2022-07-06T06:57:04;30.60;;;24.75;;
26038;SDS011;13815;52.374;4.882;2022-07-06T06:59:29;30.48;;;24.40;;
26038;SDS011;13815;52.374;4.882;2022-07-06T07:01:55;29.88;;;23.92;;
26038;SDS011;13815;52.374;4.882;2022-07-06T07:04:20;30.27;;;23.80;;
26038;SDS011;13815;52.374;4.882;2022-07-06T07:06:45;30.30;;;23.77;;
26038;SDS011;13815;52.374;4.882;2022-07-06T07:09:11;30.20;;;23.77;;
26038;SDS011;13815;52.374;4.882;2022-07-06T07:11:36;29.17;;;22.63;;
26038;SDS011;13815;52.374;4.882;2022-07-06T07:14:01;31.30;;;24.17;;
26038;SDS011;13815;52.374;4.882;2022-07-06T07:16:28;29.73;;;23.83;;
26038;SDS011;13815;52.374;4.882;2022-07-06T07:18:53;29.20;;;23.85;;
26038;SDS011;13815;52.374;4.882;2022-07-06T07:21:18;29.30;;;23.90;;
26038;SDS011;13815;52.374;4.882;2022-07-06T07:23:44;29.52;;;23.25;;
26038;SDS011;13815;52.374;4.882;2022-07-06T07:26:09;29.70;;;24.48;;
26038;SDS011;13815;52.374;4.882;2022-07-06T07:28:35;29.15;;;23.15;;
26038;SDS011;13815;52.374;4.882;2022-07-06T07:31:00;28.20;;;22.38;;
26038;SDS011;13815;52.374;4.882;2022-07-06T07:33:32;28.08;;;22.52;;
26038;SDS011;13815;52.374;4.882;2022-07-06T07:35:57;27.77;;;21.95;;
26038;SDS011;13815;52.374;4.882;2022-07-06T07:38:22;27.52;;;21.88;;
26038;SDS011;13815;52.374;4.882;2022-07-06T07:40:48;27.98;;;21.33;;
26038;SDS011;13815;52.374;4.882;2022-07-06T07:43:13;28.88;;;22.98;;
26038;SDS011;13815;52.374;4.882;2022-07-06T07:45:42;29.33;;;23.00;;
26038;SDS011;13815;52.374;4.882;2022-07-06T07:48:07;28.70;;;22.02;;
26038;SDS011;13815;52.374;4.882;2022-07-06T07:50:32;28.58;;;22.35;;
26038;SDS011;13815;52.374;4.882;2022-07-06T07:52:59;28.75;;;22.67;;
26038;SDS011;13815;52.374;4.882;2022-07-06T07:55:25;29.20;;;22.73;;
26038;SDS011;13815;52.374;4.882;2022-07-06T07:57:50;28.65;;;22.40;;
26038;SDS011;13815;52.374;4.882;2022-07-06T08:00:16;29.70;;;23.08;;
26038;SDS011;13815;52.374;4.882;2022-07-06T08:02:41;29.33;;;23.02;;
26038;SDS011;13815;52.374;4.882;2022-07-06T08:05:06;28.90;;;22.60;;
26038;SDS011;13815;52.374;4.882;2022-07-06T08:07:32;30.05;;;22.92;;
26038;SDS011;13815;52.374;4.882;2022-07-06T08:09:58;30.38;;;23.05;;
26038;SDS011;13815;52.374;4.882;2022-07-06T08:12:23;29.88;;;23.25;;
26038;SDS011;13815;52.374;4.882;2022-07-06T08:14:48;30.70;;;23.45;;
26038;SDS011;13815;52.374;4.882;2022-07-06T08:17:14;30.85;;;23.98;;
26038;SDS011;13815;52.374;4.882;2022-07-06T08:19:39;31.30;;;24.50;;
26038;SDS011;13815;52.374;4.882;2022-07-06T08:22:04;33.20;;;24.85;;
26038;SDS011;13815;52.374;4.882;2022-07-06T08:24:32;32.33;;;25.15;;
26038;SDS011;13815;52.374;4.882;2022-07-06T08:26:59;36.28;;;23.45;;
26038;SDS011;13815;52.374;4.882;2022-07-06T08:29:24;34.55;;;23.80;;
26038;SDS011;13815;52.374;4.882;2022-07-06T08:31:49;30.85;;;23.52;;
26038;SDS011;13815;52.374;4.882;2022-07-06T08:34:15;34.22;;;23.65;;
26038;SDS011;13815;52.374;4.882;2022-07-06T08:36:40;30.92;;;23.75;;
26038;SDS011;13815;52.374;4.882;2022-07-06T08:39:05;33.20;;;23.88;;
26038;SDS011;13815;52.374;4.882;2022-07-06T08:41:32;31.15;;;23.15;;
26038;SDS011;13815;52.374;4.882;2022-07-06T08:43:58;35.17;;;24.20;;
26038;SDS011;13815;52.374;4.882;2022-07-06T08:46:23;32.60;;;24.13;;
26038;SDS011;13815;52.374;4.882;2022-07-06T08:48:49;34.17;;;23.45;;
26038;SDS011;13815;52.374;4.882;2022-07-06T08:51:14;34.42;;;24.02;;
26038;SDS011;13815;52.374;4.882;2022-07-06T08:53:44;34.60;;;23.85;;
26038;SDS011;13815;52.374;4.882;2022-07-06T08:56:10;35.95;;;24.85;;
26038;SDS011;13815;52.374;4.882;2022-07-06T08:58:35;31.77;;;23.90;;
26038;SDS011;13815;52.374;4.882;2022-07-06T09:01:01;34.05;;;23.70;;
26038;SDS011;13815;52.374;4.882;2022-07-06T09:03:27;32.67;;;23.25;;
26038;SDS011;13815;52.374;4.882;2022-07-06T09:05:53;32.25;;;23.50;;
26038;SDS011;13815;52.374;4.882;2022-07-06T09:08:23;32.97;;;23.00;;
26038;SDS011;13815;52.374;4.882;2022-07-06T09:10:49;36.35;;;23.75;;
26038;SDS011;13815;52.374;4.882;2022-07-06T09:13:15;32.40;;;23.20;;
26038;SDS011;13815;52.374;4.882;2022-07-06T09:15:40;34.72;;;24.27;;
26038;SDS011;13815;52.374;4.882;2022-07-06T09:18:06;37.78;;;24.65;;
26038;SDS011;13815;52.374;4.882;2022-07-06T09:20:32;33.33;;;23.95;;
26038;SDS011;13815;52.374;4.882;2022-07-06T09:23:01;35.33;;;24.38;;
26038;SDS011;13815;52.374;4.882;2022-07-06T09:25:29;32.55;;;23.85;;
26038;SDS011;13815;52.374;4.882;2022-07-06T09:27:55;34.35;;;24.85;;
26038;SDS011;13815;52.374;4.882;2022-07-06T09:30:22;37.33;;;25.13;;
26038;SDS011;13815;52.374;4.882;2022-07-06T09:32:52;34.40;;;25.45;;
26038;SDS011;13815;52.374;4.882;2022-07-06T09:35:25;37.58;;;26.25;;
26038;SDS011;13815;52.374;4.882;2022-07-06T09:40:33;35.42;;;24.63;;
26038;SDS011;13815;52.374;4.882;2022-07-06T09:43:16;36.05;;;25.10;;
26038;SDS011;13815;52.374;4.882;2022-07-06T09:45:50;35.65;;;25.27;;
26038;SDS011;13815;52.374;4.882;2022-07-06T09:48:22;33.83;;;24.42;;
26038;SDS011;13815;52.374;4.882;2022-07-06T09:50:53;38.33;;;25.10;;
26038;SDS011;13815;52.374;4.882;2022-07-06T09:53:21;35.63;;;25.20;;
26038;SDS011;13815;52.374;4.882;2022-07-06T09:55:50;35.10;;;23.90;;
26038;SDS011;13815;52.374;4.882;2022-07-06T09:58:17;38.55;;;24.85;;
26038;SDS011;13815;52.374;4.882;2022-07-06T10:00:44;36.53;;;24.00;;
26038;SDS011;13815;52.374;4.882;2022-07-06T10:03:11;37.67;;;24.75;;
26038;SDS011;13815;52.374;4.882;2022-07-06T10:05:38;38.67;;;24.27;;
26038;SDS011;13815;52.374;4.882;2022-07-06T10:08:05;35.20;;;23.58;;
26038;SDS011;13815;52.374;4.882;2022-07-06T10:10:34;38.47;;;24.50;;
26038;SDS011;13815;52.374;4.882;2022-07-06T10:13:00;37.47;;;24.20;;
26038;SDS011;13815;52.374;4.882;2022-07-06T10:15:27;36.22;;;24.35;;
26038;SDS011;13815;52.374;4.882;2022-07-06T10:17:53;36.88;;;24.38;;
26038;SDS011;13815;52.374;4.882;2022-07-06T10:20:20;37.28;;;25.00;;
26038;SDS011;13815;52.374;4.882;2022-07-06T10:22:49;37.28;;;24.42;;
26038;SDS011;13815;52.374;4.882;2022-07-06T10:25:16;37.45;;;24.10;;
26038;SDS011;13815;52.374;4.882;2022-07-06T10:27:42;35.65;;;24.33;;
26038;SDS011;13815;52.374;4.882;2022-07-06T10:30:08;38.13;;;24.17;;
26038;SDS011;13815;52.374;4.882;2022-07-06T10:32:34;35.15;;;23.55;;
26038;SDS011;13815;52.374;4.882;2022-07-06T10:35:00;36.25;;;24.10;;
26038;SDS011;13815;52.374;4.882;2022-07-06T10:37:26;35.67;;;23.50;;
26038;SDS011;13815;52.374;4.882;2022-07-06T10:39:52;35.95;;;24.13;;
26038;SDS011;13815;52.374;4.882;2022-07-06T10:42:44;38.88;;;24.40;;
26038;SDS011;13815;52.374;4.882;2022-07-06T10:45:11;36.45;;;24.25;;
26038;SDS011;13815;52.374;4.882;2022-07-06T10:47:39;35.30;;;23.67;;
26038;SDS011;13815;52.374;4.882;2022-07-06T10:50:06;36.05;;;23.60;;
26038;SDS011;13815;52.374;4.882;2022-07-06T10:52:47;33.17;;;23.35;;
26038;SDS011;13815;52.374;4.882;2022-07-06T10:55:34;34.05;;;23.70;;
26038;SDS011;13815;52.374;4.882;2022-07-06T10:58:01;34.30;;;23.60;;
26038;SDS011;13815;52.374;4.882;2022-07-06T11:11:21;33.85;;;24.65;;
26038;SDS011;13815;52.374;4.882;2022-07-06T11:13:50;35.67;;;25.27;;
26038;SDS011;13815;52.374;4.882;2022-07-06T11:16:26;34.28;;;24.65;;
26038;SDS011;13815;52.374;4.882;2022-07-06T11:19:11;35.80;;;25.13;;
26038;SDS011;13815;52.374;4.882;2022-07-06T11:21:50;34.38;;;25.15;;
26038;SDS011;13815;52.374;4.882;2022-07-06T11:24:28;34.45;;;25.05;;
26038;SDS011;13815;52.374;4.882;2022-07-06T11:27:02;35.30;;;25.88;;
26038;SDS011;13815;52.374;4.882;2022-07-06T11:29:28;35.35;;;25.42;;
26038;SDS011;13815;52.374;4.882;2022-07-06T11:31:55;35.22;;;25.83;;
26038;SDS011;13815;52.374;4.882;2022-07-06T11:34:26;34.60;;;25.30;;
26038;SDS011;13815;52.374;4.882;2022-07-06T11:36:56;34.83;;;25.55;;
26038;SDS011;13815;52.374;4.882;2022-07-06T11:39:28;35.45;;;25.83;;
26038;SDS011;13815;52.374;4.882;2022-07-06T11:41:55;33.85;;;25.25;;
26038;SDS011;13815;52.374;4.882;2022-07-06T11:44:21;35.45;;;25.88;;
26038;SDS011;13815;52.374;4.882;2022-07-06T11:46:47;34.97;;;26.35;;
26038;SDS011;13815;52.374;4.882;2022-07-06T11:49:12;34.75;;;26.02;;
26038;SDS011;13815;52.374;4.882;2022-07-06T11:51:39;33.92;;;25.52;;
26038;SDS011;13815;52.374;4.882;2022-07-06T11:56:37;33.38;;;24.85;;
26038;SDS011;13815;52.374;4.882;2022-07-06T11:59:03;34.50;;;25.35;;
26038;SDS011;13815;52.374;4.882;2022-07-06T12:01:29;33.90;;;24.98;;
26038;SDS011;13815;52.374;4.882;2022-07-06T12:03:59;32.92;;;24.50;;
26038;SDS011;13815;52.374;4.882;2022-07-06T12:06:28;33.42;;;24.83;;
26038;SDS011;13815;52.374;4.882;2022-07-06T12:08:57;34.30;;;24.38;;
26038;SDS011;13815;52.374;4.882;2022-07-06T12:11:30;33.47;;;24.90;;
26038;SDS011;13815;52.374;4.882;2022-07-06T12:13:58;36.35;;;25.00;;
26038;SDS011;13815;52.374;4.882;2022-07-06T12:16:31;32.78;;;24.75;;
26038;SDS011;13815;52.374;4.882;2022-07-06T12:19:01;35.03;;;25.30;;
26038;SDS011;13815;52.374;4.882;2022-07-06T12:21:28;33.75;;;24.67;;
26038;SDS011;13815;52.374;4.882;2022-07-06T12:23:54;35.15;;;25.52;;
26038;SDS011;13815;52.374;4.882;2022-07-06T12:26:22;37.03;;;25.80;;
26038;SDS011;13815;52.374;4.882;2022-07-06T12:29:06;32.95;;;24.85;;
26038;SDS011;13815;52.374;4.882;2022-07-06T12:31:38;34.15;;;25.05;;
26038;SDS011;13815;52.374;4.882;2022-07-06T12:34:13;33.10;;;25.27;;
26038;SDS011;13815;52.374;4.882;2022-07-06T12:36:45;36.10;;;25.65;;
26038;SDS011;13815;52.374;4.882;2022-07-06T12:39:12;32.70;;;24.83;;
26038;SDS011;13815;52.374;4.882;2022-07-06T12:41:48;35.78;;;25.83;;
26038;SDS011;13815;52.374;4.882;2022-07-06T12:44:24;32.90;;;25.10;;
26038;SDS011;13815;52.374;4.882;2022-07-06T12:46:50;36.03;;;26.02;;
26038;SDS011;13815;52.374;4.882;2022-07-06T12:49:17;35.20;;;25.80;;
26038;SDS011;13815;52.374;4.882;2022-07-06T12:51:52;32.80;;;24.77;;
26038;SDS011;13815;52.374;4.882;2022-07-06T12:54:19;32.92;;;25.23;;
26038;SDS011;13815;52.374;4.882;2022-07-06T12:56:57;32.50;;;24.60;;
26038;SDS011;13815;52.374;4.882;2022-07-06T12:59:27;33.65;;;24.92;;
26038;SDS011;13815;52.374;4.882;2022-07-06T13:01:54;32.08;;;24.70;;
26038;SDS011;13815;52.374;4.882;2022-07-06T13:04:21;32.75;;;24.77;;
26038;SDS011;13815;52.374;4.882;2022-07-06T13:06:47;33.45;;;25.67;;
26038;SDS011;13815;52.374;4.882;2022-07-06T13:09:13;34.95;;;25.40;;
26038;SDS011;13815;52.374;4.882;2022-07-06T13:11:40;32.47;;;24.35;;
26038;SDS011;13815;52.374;4.882;2022-07-06T13:14:05;33.38;;;25.08;;
26038;SDS011;13815;52.374;4.882;2022-07-06T13:16:30;33.15;;;25.02;;
26038;SDS011;13815;52.374;4.882;2022-07-06T13:18:59;32.78;;;25.00;;
26038;SDS011;13815;52.374;4.882;2022-07-06T13:21:25;33.50;;;24.98;;
26038;SDS011;13815;52.374;4.882;2022-07-06T13:23:50;33.50;;;24.73;;
26038;SDS011;13815;52.374;4.882;2022-07-06T13:26:16;33.65;;;25.35;;
26038;SDS011;13815;52.374;4.882;2022-07-06T13:28:41;33.15;;;24.42;;
26038;SDS011;13815;52.374;4.882;2022-07-06T13:31:06;34.10;;;25.17;;
26038;SDS011;13815;52.374;4.882;2022-07-06T13:33:35;35.83;;;25.48;;
26038;SDS011;13815;52.374;4.882;2022-07-06T13:36:00;33.45;;;25.00;;
26038;SDS011;13815;52.374;4.882;2022-07-06T13:38:26;35.33;;;25.10;;
26038;SDS011;13815;52.374;4.882;2022-07-06T13:40:51;33.65;;;24.85;;
26038;SDS011;13815;52.374;4.882;2022-07-06T13:43:16;33.20;;;24.45;;
26038;SDS011;13815;52.374;4.882;2022-07-06T13:45:43;34.42;;;25.02;;
26038;SDS011;13815;52.374;4.882;2022-07-06T13:48:08;33.60;;;24.40;;
26038;SDS011;13815;52.374;4.882;2022-07-06T13:50:33;33.30;;;24.63;;
26038;SDS011;13815;52.374;4.882;2022-07-06T13:52:59;35.90;;;25.27;;
26038;SDS011;13815;52.374;4.882;2022-07-06T13:55:24;34.10;;;24.60;;
26038;SDS011;13815;52.374;4.882;2022-07-06T13:57:49;33.35;;;24.95;;
26038;SDS011;13815;52.374;4.882;2022-07-06T14:00:15;33.97;;;24.35;;
26038;SDS011;13815;52.374;4.882;2022-07-06T14:02:43;34.22;;;24.60;;
26038;SDS011;13815;52.374;4.882;2022-07-06T14:05:08;31.73;;;23.83;;
26038;SDS011;13815;52.374;4.882;2022-07-06T14:07:34;34.40;;;24.55;;
26038;SDS011;13815;52.374;4.882;2022-07-06T14:09:59;32.15;;;24.33;;
26038;SDS011;13815;52.374;4.882;2022-07-06T14:12:24;32.08;;;24.35;;
26038;SDS011;13815;52.374;4.882;2022-07-06T14:14:51;32.35;;;24.15;;
26038;SDS011;13815;52.374;4.882;2022-07-06T14:17:16;32.15;;;24.30;;
26038;SDS011;13815;52.374;4.882;2022-07-06T14:19:41;33.38;;;24.88;;
26038;SDS011;13815;52.374;4.882;2022-07-06T14:22:07;33.30;;;24.92;;
26038;SDS011;13815;52.374;4.882;2022-07-06T14:24:32;32.45;;;24.70;;
26038;SDS011;13815;52.374;4.882;2022-07-06T14:26:57;31.95;;;24.48;;
26038;SDS011;13815;52.374;4.882;2022-07-06T14:29:22;33.30;;;24.85;;
26038;SDS011;13815;52.374;4.882;2022-07-06T14:31:48;32.30;;;24.52;;
26038;SDS011;13815;52.374;4.882;2022-07-06T14:34:13;32.15;;;24.08;;
26038;SDS011;13815;52.374;4.882;2022-07-06T14:36:39;32.83;;;24.85;;
26038;SDS011;13815;52.374;4.882;2022-07-06T14:39:04;31.73;;;24.25;;
26038;SDS011;13815;52.374;4.882;2022-07-06T14:41:30;32.22;;;24.00;;
26038;SDS011;13815;52.374;4.882;2022-07-06T14:43:55;33.65;;;24.73;;
26038;SDS011;13815;52.374;4.882;2022-07-06T14:46:20;33.80;;;24.60;;
26038;SDS011;13815;52.374;4.882;2022-07-06T14:48:46;33.17;;;24.65;;
26038;SDS011;13815;52.374;4.882;2022-07-06T14:51:11;33.25;;;24.05;;
26038;SDS011;13815;52.374;4.882;2022-07-06T14:53:37;32.83;;;24.42;;
26038;SDS011;13815;52.374;4.882;2022-07-06T14:56:11;33.70;;;24.27;;
26038;SDS011;13815;52.374;4.882;2022-07-06T14:58:37;34.50;;;24.52;;
26038;SDS011;13815;52.374;4.882;2022-07-06T15:01:03;33.78;;;24.52;;
26038;SDS011;13815;52.374;4.882;2022-07-06T15:03:28;35.28;;;24.63;;
26038;SDS011;13815;52.374;4.882;2022-07-06T15:05:53;34.17;;;23.95;;
26038;SDS011;13815;52.374;4.882;2022-07-06T15:08:19;33.38;;;23.73;;
26038;SDS011;13815;52.374;4.882;2022-07-06T15:10:44;33.20;;;23.83;;
26038;SDS011;13815;52.374;4.882;2022-07-06T15:13:10;32.75;;;23.27;;
26038;SDS011;13815;52.374;4.882;2022-07-06T15:15:36;33.22;;;23.80;;
26038;SDS011;13815;52.374;4.882;2022-07-06T15:18:02;33.40;;;23.63;;
26038;SDS011;13815;52.374;4.882;2022-07-06T15:20:28;33.45;;;23.73;;
26038;SDS011;13815;52.374;4.882;2022-07-06T15:22:53;34.83;;;23.85;;
26038;SDS011;13815;52.374;4.882;2022-07-06T15:25:18;32.85;;;23.52;;
26038;SDS011;13815;52.374;4.882;2022-07-06T15:27:44;33.92;;;23.58;;
26038;SDS011;13815;52.374;4.882;2022-07-06T15:30:10;33.75;;;24.10;;
26038;SDS011;13815;52.374;4.882;2022-07-06T15:32:36;34.72;;;24.02;;
26038;SDS011;13815;52.374;4.882;2022-07-06T15:35:01;34.55;;;24.10;;
26038;SDS011;13815;52.374;4.882;2022-07-06T15:37:30;34.10;;;23.73;;
26038;SDS011;13815;52.374;4.882;2022-07-06T15:39:55;34.13;;;23.30;;
26038;SDS011;13815;52.374;4.882;2022-07-06T15:42:20;34.00;;;23.60;;
26038;SDS011;13815;52.374;4.882;2022-07-06T15:44:46;32.85;;;23.10;;
26038;SDS011;13815;52.374;4.882;2022-07-06T15:47:13;31.63;;;22.50;;
26038;SDS011;13815;52.374;4.882;2022-07-06T15:49:39;33.05;;;23.15;;
26038;SDS011;13815;52.374;4.882;2022-07-06T15:52:04;33.33;;;23.20;;
26038;SDS011;13815;52.374;4.882;2022-07-06T15:54:30;33.95;;;23.30;;
26038;SDS011;13815;52.374;4.882;2022-07-06T15:56:56;31.70;;;22.80;;
26038;SDS011;13815;52.374;4.882;2022-07-06T15:59:24;33.40;;;23.40;;
26038;SDS011;13815;52.374;4.882;2022-07-06T16:01:50;33.67;;;23.52;;
26038;SDS011;13815;52.374;4.882;2022-07-06T16:04:15;35.33;;;24.17;;
26038;SDS011;13815;52.374;4.882;2022-07-06T16:06:41;33.55;;;23.00;;
26038;SDS011;13815;52.374;4.882;2022-07-06T16:09:08;22.88;;;20.38;;
26038;SDS011;13815;52.374;4.882;2022-07-06T16:11:33;31.45;;;22.55;;
26038;SDS011;13815;52.374;4.882;2022-07-06T16:13:59;32.50;;;22.92;;
26038;SDS011;13815;52.374;4.882;2022-07-06T16:16:24;32.60;;;22.77;;
26038;SDS011;13815;52.374;4.882;2022-07-06T16:18:50;29.77;;;22.25;;
26038;SDS011;13815;52.374;4.882;2022-07-06T16:21:16;32.35;;;23.33;;
26038;SDS011;13815;52.374;4.882;2022-07-06T16:23:42;32.08;;;24.15;;
26038;SDS011;13815;52.374;4.882;2022-07-06T16:26:07;21.75;;;19.95;;
26038;SDS011;13815;52.374;4.882;2022-07-06T16:28:33;30.92;;;23.55;;
26038;SDS011;13815;52.374;4.882;2022-07-06T16:30:59;31.08;;;23.77;;
26038;SDS011;13815;52.374;4.882;2022-07-06T16:33:25;31.77;;;24.10;;